Benoit, Mississippi
Current Conditions -  °F | °C
As of 6:53 PM on Friday 19 Dec 2014 (Local Time) from KGLH Reporting Station
Overcast Overcast  
Wind Chill: 40°   Ceiling: 3100
Heat Index: 45°   Visibility: 8mi
Dew Point: 41°   Wind: 9mph
Humidity: 86%   Direction: 30°NNE
Pressure: 30.2"   Gusts: NA
Location:  33.65°N, 91.01°W
Report Text: KGLH 200053Z AUTO 03008KT 8SM BKN031 OVC055 07/05 A3020 RMK AO2 SLP237 T00720050
Loading
Personal Weather Stations






























Interactive Weather Map New forecast layout! Learn more

10-Day Weather Forecast

Advertisements
Track Severe Weather on mobile